FDX251 PHNL-KSFO
Flight info
| Callsign | FDX251 |
|---|---|
| Flight time | N/A |
| Altitude | 35000 |
| Route | MKK5 KOLEA CLUTS R465 CINNY PIRAT3 |
| Aircraft | B77L/H-SDE1E2E3FGHIJ2J3J4J5M1RWXY/LB1D1 |
Departure
| Time | 2026-05-08 04:35 |
|---|---|
| Airport | Daniel K. Inouye International Airport (PHNL) |
Arrival
| Time | N/A |
|---|---|
| Airport | San Francisco International Airport (KSFO) |
| Time | Latitude | Longitude | Altitude | Speed | Heading |
|---|---|---|---|---|---|
| 2026-05-08 04:10 | 21.31814 | -157.91636 | 23 ft | 0 kts | 145° |
| 2026-05-08 04:22 | 21.31819 | -157.91639 | 23 ft | 2 kts | 145° |
| 2026-05-08 04:22 | 21.31835 | -157.91651 | 27 ft | 3 kts | 142° |
| 2026-05-08 04:22 | 21.31851 | -157.91665 | 25 ft | 3 kts | 142° |
| 2026-05-08 04:22 | 21.31867 | -157.91678 | 23 ft | 3 kts | 146° |
| 2026-05-08 04:23 | 21.31883 | -157.91689 | 27 ft | 2 kts | 153° |
| 2026-05-08 04:23 | 21.31900 | -157.91696 | 26 ft | 3 kts | 174° |
| 2026-05-08 04:23 | 21.31916 | -157.91696 | 25 ft | 3 kts | 205° |
| 2026-05-08 04:23 | 21.31932 | -157.91685 | 27 ft | 3 kts | 217° |
| 2026-05-08 04:24 | 21.31942 | -157.91678 | 26 ft | 0 kts | 213° |
| 2026-05-08 04:27 | 21.31934 | -157.91684 | 27 ft | 6 kts | 216° |
| 2026-05-08 04:28 | 21.31884 | -157.91729 | 26 ft | 10 kts | 230° |
| 2026-05-08 04:28 | 21.31827 | -157.91809 | 25 ft | 19 kts | 233° |
| 2026-05-08 04:28 | 21.31746 | -157.91925 | 26 ft | 19 kts | 233° |
| 2026-05-08 04:28 | 21.31665 | -157.92040 | 21 ft | 19 kts | 233° |
| 2026-05-08 04:29 | 21.31583 | -157.92155 | 17 ft | 19 kts | 233° |
| 2026-05-08 04:29 | 21.31501 | -157.92271 | 17 ft | 19 kts | 233° |
| 2026-05-08 04:29 | 21.31421 | -157.92386 | 16 ft | 19 kts | 234° |
| 2026-05-08 04:29 | 21.31339 | -157.92502 | 18 ft | 19 kts | 232° |
| 2026-05-08 04:30 | 21.31238 | -157.92564 | 20 ft | 19 kts | 150° |
| 2026-05-08 04:30 | 21.31137 | -157.92471 | 24 ft | 19 kts | 138° |
| 2026-05-08 04:30 | 21.31039 | -157.92377 | 27 ft | 19 kts | 143° |
| 2026-05-08 04:30 | 21.30966 | -157.92428 | 27 ft | 15 kts | 277° |
| 2026-05-08 04:31 | 21.30970 | -157.92541 | 24 ft | 15 kts | 271° |
| 2026-05-08 04:31 | 21.30972 | -157.92656 | 24 ft | 16 kts | 270° |
| 2026-05-08 04:31 | 21.30970 | -157.92804 | 22 ft | 24 kts | 269° |
| 2026-05-08 04:31 | 21.30971 | -157.93015 | 21 ft | 32 kts | 270° |
| 2026-05-08 04:32 | 21.30972 | -157.93237 | 22 ft | 29 kts | 270° |
| 2026-05-08 04:32 | 21.30971 | -157.93458 | 20 ft | 29 kts | 270° |
| 2026-05-08 04:32 | 21.30970 | -157.93676 | 24 ft | 29 kts | 269° |
| 2026-05-08 04:32 | 21.30971 | -157.93895 | 22 ft | 29 kts | 270° |
| 2026-05-08 04:33 | 21.30972 | -157.94116 | 25 ft | 29 kts | 270° |
| 2026-05-08 04:33 | 21.30971 | -157.94316 | 23 ft | 24 kts | 270° |
| 2026-05-08 04:33 | 21.30971 | -157.94493 | 22 ft | 22 kts | 270° |
| 2026-05-08 04:33 | 21.30866 | -157.94574 | 25 ft | 22 kts | 182° |
| 2026-05-08 04:34 | 21.30716 | -157.94566 | 23 ft | 22 kts | 157° |
| 2026-05-08 04:34 | 21.30681 | -157.94411 | 27 ft | 31 kts | 89° |
| 2026-05-08 04:34 | 21.30681 | -157.93897 | 28 ft | 104 kts | 90° |
| 2026-05-08 04:34 | 21.30688 | -157.92894 | 23 ft | 164 kts | 88° |
| 2026-05-08 04:35 | 21.30671 | -157.91553 | 290 ft | 186 kts | 91° |
| 2026-05-08 04:35 | 21.30211 | -157.90204 | 658 ft | 209 kts | 126° |
| 2026-05-08 04:35 | 21.28998 | -157.89300 | 1170 ft | 221 kts | 155° |
| 2026-05-08 04:35 | 21.27475 | -157.88773 | 1627 ft | 232 kts | 161° |
| 2026-05-08 04:36 | 21.25973 | -157.88280 | 2441 ft | 225 kts | 159° |
| 2026-05-08 04:36 | 21.24471 | -157.87801 | 3168 ft | 224 kts | 160° |
| 2026-05-08 04:36 | 21.23006 | -157.87288 | 3765 ft | 225 kts | 149° |
| 2026-05-08 04:36 | 21.21676 | -157.86353 | 4211 ft | 230 kts | 142° |
| 2026-05-08 04:37 | 21.20305 | -157.85303 | 4554 ft | 249 kts | 143° |
| 2026-05-08 04:37 | 21.18825 | -157.84213 | 4835 ft | 275 kts | 144° |
| 2026-05-08 04:37 | 21.17210 | -157.82991 | 5322 ft | 281 kts | 136° |
| 2026-05-08 04:37 | 21.16082 | -157.81339 | 6149 ft | 279 kts | 109° |
| 2026-05-08 04:38 | 21.15784 | -157.79279 | 6821 ft | 281 kts | 92° |
| 2026-05-08 04:38 | 21.15764 | -157.77182 | 7396 ft | 288 kts | 88° |
| 2026-05-08 04:38 | 21.15856 | -157.75004 | 7987 ft | 294 kts | 87° |
| 2026-05-08 04:38 | 21.15952 | -157.72769 | 8597 ft | 302 kts | 88° |
| 2026-05-08 04:39 | 21.15998 | -157.70545 | 9374 ft | 300 kts | 89° |
| 2026-05-08 04:39 | 21.15977 | -157.68299 | 10098 ft | 301 kts | 91° |
| 2026-05-08 04:39 | 21.15930 | -157.66048 | 10483 ft | 315 kts | 91° |
| 2026-05-08 04:39 | 21.15859 | -157.63638 | 10831 ft | 331 kts | 92° |
| 2026-05-08 04:40 | 21.15770 | -157.61087 | 11115 ft | 350 kts | 92° |
| 2026-05-08 04:40 | 21.15672 | -157.58413 | 11543 ft | 365 kts | 92° |
| 2026-05-08 04:40 | 21.15563 | -157.55671 | 12050 ft | 378 kts | 92° |
| 2026-05-08 04:40 | 21.15438 | -157.52737 | 12188 ft | 401 kts | 92° |
| 2026-05-08 04:41 | 21.15307 | -157.49800 | 13184 ft | 398 kts | 93° |
| 2026-05-08 04:41 | 21.15177 | -157.46797 | 13962 ft | 403 kts | 92° |
| 2026-05-08 04:41 | 21.15054 | -157.43775 | 14435 ft | 414 kts | 92° |
| 2026-05-08 04:41 | 21.14931 | -157.40645 | 15043 ft | 419 kts | 92° |
| 2026-05-08 04:42 | 21.14801 | -157.37558 | 15860 ft | 419 kts | 92° |
| 2026-05-08 04:42 | 21.14651 | -157.34408 | 16583 ft | 422 kts | 93° |
| 2026-05-08 04:42 | 21.14491 | -157.31277 | 17157 ft | 428 kts | 93° |
| 2026-05-08 04:42 | 21.14328 | -157.28047 | 17777 ft | 432 kts | 93° |
| 2026-05-08 04:43 | 21.14171 | -157.24890 | 18726 ft | 426 kts | 93° |
| 2026-05-08 04:43 | 21.14018 | -157.21698 | 19325 ft | 430 kts | 93° |
| 2026-05-08 04:43 | 21.14065 | -157.18499 | 19535 ft | 439 kts | 82° |
| 2026-05-08 04:43 | 21.14888 | -157.15345 | 19856 ft | 446 kts | 64° |
| 2026-05-08 04:44 | 21.16569 | -157.12531 | 20438 ft | 445 kts | 49° |
| 2026-05-08 04:44 | 21.18630 | -157.10071 | 20918 ft | 446 kts | 47° |
| 2026-05-08 04:44 | 21.20688 | -157.07576 | 21318 ft | 453 kts | 49° |
| 2026-05-08 04:44 | 21.22748 | -157.04972 | 21848 ft | 456 kts | 50° |
| 2026-05-08 04:45 | 21.24758 | -157.02360 | 22324 ft | 461 kts | 51° |
| 2026-05-08 04:45 | 21.26802 | -156.99665 | 22781 ft | 465 kts | 51° |
| 2026-05-08 04:45 | 21.28822 | -156.96984 | 23328 ft | 467 kts | 51° |
| 2026-05-08 04:45 | 21.30887 | -156.94242 | 23752 ft | 472 kts | 51° |
| 2026-05-08 04:46 | 21.32938 | -156.91518 | 24144 ft | 475 kts | 51° |
| 2026-05-08 04:46 | 21.35034 | -156.88741 | 24498 ft | 479 kts | 51° |
| 2026-05-08 04:46 | 21.37144 | -156.85947 | 25000 ft | 480 kts | 51° |
| 2026-05-08 04:46 | 21.39239 | -156.83173 | 25327 ft | 485 kts | 51° |
| 2026-05-08 04:47 | 21.41372 | -156.80348 | 25755 ft | 487 kts | 51° |
| 2026-05-08 04:47 | 21.43519 | -156.77503 | 26173 ft | 490 kts | 51° |
| 2026-05-08 04:47 | 21.45655 | -156.74671 | 26545 ft | 494 kts | 51° |
| 2026-05-08 04:47 | 21.47827 | -156.71790 | 26962 ft | 496 kts | 51° |
| 2026-05-08 04:48 | 21.49985 | -156.68925 | 27347 ft | 499 kts | 50° |
| 2026-05-08 04:48 | 21.52187 | -156.66000 | 27758 ft | 502 kts | 50° |
| 2026-05-08 04:48 | 21.54380 | -156.63085 | 28143 ft | 505 kts | 50° |
| 2026-05-08 04:48 | 21.56599 | -156.60134 | 28533 ft | 508 kts | 50° |
| 2026-05-08 04:49 | 21.58831 | -156.57165 | 28906 ft | 510 kts | 50° |
| 2026-05-08 04:49 | 21.61052 | -156.54211 | 29241 ft | 514 kts | 50° |
| 2026-05-08 04:49 | 21.63312 | -156.51204 | 29567 ft | 517 kts | 50° |
| 2026-05-08 04:49 | 21.65585 | -156.48176 | 29879 ft | 520 kts | 50° |
| 2026-05-08 04:50 | 21.67860 | -156.45144 | 30262 ft | 521 kts | 50° |
| 2026-05-08 04:50 | 21.70108 | -156.42146 | 30700 ft | 519 kts | 50° |